sensor_id;sensor_type;location;lat;lon;timestamp;P1;durP1;ratioP1;P2;durP2;ratioP2
69621;SDS011;56841;55.964;37.674;2023-06-26T00:00:15;17.58;;;8.07;;
69621;SDS011;56841;55.964;37.674;2023-06-26T00:02:41;13.07;;;8.20;;
69621;SDS011;56841;55.964;37.674;2023-06-26T00:05:06;16.55;;;8.35;;
69621;SDS011;56841;55.964;37.674;2023-06-26T00:07:32;11.55;;;7.00;;
69621;SDS011;56841;55.964;37.674;2023-06-26T00:10:04;15.30;;;7.80;;
69621;SDS011;56841;55.964;37.674;2023-06-26T00:12:31;13.32;;;7.53;;
69621;SDS011;56841;55.964;37.674;2023-06-26T00:14:57;13.27;;;7.72;;
69621;SDS011;56841;55.964;37.674;2023-06-26T00:17:23;13.45;;;7.72;;
69621;SDS011;56841;55.964;37.674;2023-06-26T00:19:50;14.27;;;8.07;;
69621;SDS011;56841;55.964;37.674;2023-06-26T00:22:15;14.05;;;8.32;;
69621;SDS011;56841;55.964;37.674;2023-06-26T00:24:41;13.68;;;7.93;;
69621;SDS011;56841;55.964;37.674;2023-06-26T00:27:06;12.38;;;7.82;;
69621;SDS011;56841;55.964;37.674;2023-06-26T00:29:32;16.17;;;8.23;;
69621;SDS011;56841;55.964;37.674;2023-06-26T00:31:58;14.32;;;7.90;;
69621;SDS011;56841;55.964;37.674;2023-06-26T00:34:25;12.35;;;7.63;;
69621;SDS011;56841;55.964;37.674;2023-06-26T00:36:50;15.63;;;7.82;;
69621;SDS011;56841;55.964;37.674;2023-06-26T00:39:16;13.43;;;7.72;;
69621;SDS011;56841;55.964;37.674;2023-06-26T00:41:42;12.60;;;7.85;;
69621;SDS011;56841;55.964;37.674;2023-06-26T00:44:07;13.70;;;7.40;;
69621;SDS011;56841;55.964;37.674;2023-06-26T00:46:33;16.30;;;7.53;;
69621;SDS011;56841;55.964;37.674;2023-06-26T00:49:01;11.80;;;7.72;;
69621;SDS011;56841;55.964;37.674;2023-06-26T00:51:29;12.50;;;7.75;;
69621;SDS011;56841;55.964;37.674;2023-06-26T00:53:56;11.93;;;7.75;;
69621;SDS011;56841;55.964;37.674;2023-06-26T00:56:23;14.57;;;7.60;;
69621;SDS011;56841;55.964;37.674;2023-06-26T00:58:49;12.88;;;7.90;;
69621;SDS011;56841;55.964;37.674;2023-06-26T01:01:15;12.20;;;7.63;;
69621;SDS011;56841;55.964;37.674;2023-06-26T01:03:45;12.75;;;7.93;;
69621;SDS011;56841;55.964;37.674;2023-06-26T01:06:13;12.55;;;7.85;;
69621;SDS011;56841;55.964;37.674;2023-06-26T01:08:41;12.32;;;7.72;;
69621;SDS011;56841;55.964;37.674;2023-06-26T01:11:08;14.48;;;7.47;;
69621;SDS011;56841;55.964;37.674;2023-06-26T01:13:34;15.07;;;8.20;;
69621;SDS011;56841;55.964;37.674;2023-06-26T01:16:01;13.27;;;7.80;;
69621;SDS011;56841;55.964;37.674;2023-06-26T01:18:28;13.10;;;7.57;;
69621;SDS011;56841;55.964;37.674;2023-06-26T01:20:56;15.13;;;7.57;;
69621;SDS011;56841;55.964;37.674;2023-06-26T01:23:30;12.18;;;7.95;;
69621;SDS011;56841;55.964;37.674;2023-06-26T01:28:38;11.85;;;7.15;;
69621;SDS011;56841;55.964;37.674;2023-06-26T01:31:06;15.25;;;7.43;;
69621;SDS011;56841;55.964;37.674;2023-06-26T01:33:32;14.65;;;7.70;;
69621;SDS011;56841;55.964;37.674;2023-06-26T01:35:58;12.60;;;7.68;;
69621;SDS011;56841;55.964;37.674;2023-06-26T01:38:26;13.98;;;7.45;;
69621;SDS011;56841;55.964;37.674;2023-06-26T01:40:55;14.18;;;7.85;;
69621;SDS011;56841;55.964;37.674;2023-06-26T01:43:24;12.73;;;7.82;;
69621;SDS011;56841;55.964;37.674;2023-06-26T01:45:55;12.50;;;7.53;;
69621;SDS011;56841;55.964;37.674;2023-06-26T01:48:31;12.48;;;7.00;;
69621;SDS011;56841;55.964;37.674;2023-06-26T01:51:03;14.65;;;7.75;;
69621;SDS011;56841;55.964;37.674;2023-06-26T01:53:36;13.00;;;7.68;;
69621;SDS011;56841;55.964;37.674;2023-06-26T01:56:07;13.38;;;7.38;;
69621;SDS011;56841;55.964;37.674;2023-06-26T01:58:39;15.00;;;7.97;;
69621;SDS011;56841;55.964;37.674;2023-06-26T02:01:08;14.45;;;7.82;;
69621;SDS011;56841;55.964;37.674;2023-06-26T02:03:34;16.60;;;7.60;;
69621;SDS011;56841;55.964;37.674;2023-06-26T02:06:00;13.57;;;7.90;;
69621;SDS011;56841;55.964;37.674;2023-06-26T02:08:26;15.80;;;8.10;;
69621;SDS011;56841;55.964;37.674;2023-06-26T02:10:55;13.57;;;8.55;;
69621;SDS011;56841;55.964;37.674;2023-06-26T02:13:21;15.13;;;8.23;;
69621;SDS011;56841;55.964;37.674;2023-06-26T02:15:46;13.02;;;7.88;;
69621;SDS011;56841;55.964;37.674;2023-06-26T02:18:13;13.65;;;7.93;;
69621;SDS011;56841;55.964;37.674;2023-06-26T02:20:38;13.93;;;8.20;;
69621;SDS011;56841;55.964;37.674;2023-06-26T02:23:05;15.90;;;8.52;;
69621;SDS011;56841;55.964;37.674;2023-06-26T02:25:31;14.77;;;8.02;;
69621;SDS011;56841;55.964;37.674;2023-06-26T02:27:56;13.82;;;8.20;;
69621;SDS011;56841;55.964;37.674;2023-06-26T02:30:22;13.00;;;7.55;;
69621;SDS011;56841;55.964;37.674;2023-06-26T02:32:47;11.93;;;7.68;;
69621;SDS011;56841;55.964;37.674;2023-06-26T02:35:13;15.05;;;7.95;;
69621;SDS011;56841;55.964;37.674;2023-06-26T02:37:41;15.52;;;7.78;;
69621;SDS011;56841;55.964;37.674;2023-06-26T02:40:08;14.23;;;8.13;;
69621;SDS011;56841;55.964;37.674;2023-06-26T02:42:36;12.13;;;7.18;;
69621;SDS011;56841;55.964;37.674;2023-06-26T02:45:02;15.02;;;8.23;;
69621;SDS011;56841;55.964;37.674;2023-06-26T02:47:30;14.00;;;8.45;;
69621;SDS011;56841;55.964;37.674;2023-06-26T02:49:55;13.57;;;8.27;;
69621;SDS011;56841;55.964;37.674;2023-06-26T02:52:21;14.68;;;8.45;;
69621;SDS011;56841;55.964;37.674;2023-06-26T02:54:46;15.82;;;8.40;;
69621;SDS011;56841;55.964;37.674;2023-06-26T02:57:12;16.13;;;8.32;;
69621;SDS011;56841;55.964;37.674;2023-06-26T02:59:40;14.57;;;8.18;;
69621;SDS011;56841;55.964;37.674;2023-06-26T03:02:07;15.00;;;8.00;;
69621;SDS011;56841;55.964;37.674;2023-06-26T03:07:08;13.48;;;7.32;;
69621;SDS011;56841;55.964;37.674;2023-06-26T03:09:34;15.43;;;8.30;;
69621;SDS011;56841;55.964;37.674;2023-06-26T03:12:00;14.63;;;8.07;;
69621;SDS011;56841;55.964;37.674;2023-06-26T03:14:26;13.32;;;7.78;;
69621;SDS011;56841;55.964;37.674;2023-06-26T03:16:52;14.00;;;8.15;;
69621;SDS011;56841;55.964;37.674;2023-06-26T03:19:21;15.20;;;7.97;;
69621;SDS011;56841;55.964;37.674;2023-06-26T03:22:05;14.15;;;8.10;;
69621;SDS011;56841;55.964;37.674;2023-06-26T03:24:31;16.88;;;7.82;;
69621;SDS011;56841;55.964;37.674;2023-06-26T03:26:57;14.00;;;8.25;;
69621;SDS011;56841;55.964;37.674;2023-06-26T03:29:22;13.95;;;8.23;;
69621;SDS011;56841;55.964;37.674;2023-06-26T03:31:49;13.15;;;8.02;;
69621;SDS011;56841;55.964;37.674;2023-06-26T03:34:15;12.32;;;7.80;;
69621;SDS011;56841;55.964;37.674;2023-06-26T03:36:41;11.95;;;7.28;;
69621;SDS011;56841;55.964;37.674;2023-06-26T03:39:06;12.43;;;7.55;;
69621;SDS011;56841;55.964;37.674;2023-06-26T03:41:32;11.77;;;7.40;;
69621;SDS011;56841;55.964;37.674;2023-06-26T03:43:58;13.88;;;8.02;;
69621;SDS011;56841;55.964;37.674;2023-06-26T03:46:30;13.57;;;7.68;;
69621;SDS011;56841;55.964;37.674;2023-06-26T03:48:56;13.65;;;7.97;;
69621;SDS011;56841;55.964;37.674;2023-06-26T03:51:22;16.13;;;8.30;;
69621;SDS011;56841;55.964;37.674;2023-06-26T03:53:48;14.20;;;7.25;;
69621;SDS011;56841;55.964;37.674;2023-06-26T03:56:14;14.85;;;7.80;;
69621;SDS011;56841;55.964;37.674;2023-06-26T03:58:40;18.52;;;7.50;;
69621;SDS011;56841;55.964;37.674;2023-06-26T04:01:06;18.73;;;7.85;;
69621;SDS011;56841;55.964;37.674;2023-06-26T04:03:32;17.83;;;7.65;;
69621;SDS011;56841;55.964;37.674;2023-06-26T04:05:59;20.15;;;8.02;;
69621;SDS011;56841;55.964;37.674;2023-06-26T04:08:24;15.82;;;7.38;;
69621;SDS011;56841;55.964;37.674;2023-06-26T04:10:52;15.90;;;7.95;;
69621;SDS011;56841;55.964;37.674;2023-06-26T04:13:19;18.42;;;7.25;;
69621;SDS011;56841;55.964;37.674;2023-06-26T04:15:44;16.60;;;7.60;;
69621;SDS011;56841;55.964;37.674;2023-06-26T04:18:10;11.52;;;7.28;;
69621;SDS011;56841;55.964;37.674;2023-06-26T04:20:38;15.77;;;7.68;;
69621;SDS011;56841;55.964;37.674;2023-06-26T04:23:05;14.43;;;6.88;;
69621;SDS011;56841;55.964;37.674;2023-06-26T04:25:30;14.82;;;7.13;;
69621;SDS011;56841;55.964;37.674;2023-06-26T04:27:56;12.55;;;6.80;;
69621;SDS011;56841;55.964;37.674;2023-06-26T04:30:22;13.30;;;6.90;;
69621;SDS011;56841;55.964;37.674;2023-06-26T04:32:48;18.98;;;6.75;;
69621;SDS011;56841;55.964;37.674;2023-06-26T04:35:14;12.20;;;6.65;;
69621;SDS011;56841;55.964;37.674;2023-06-26T04:37:40;12.13;;;7.75;;
69621;SDS011;56841;55.964;37.674;2023-06-26T04:40:06;16.67;;;7.22;;
69621;SDS011;56841;55.964;37.674;2023-06-26T04:42:33;16.00;;;6.85;;
69621;SDS011;56841;55.964;37.674;2023-06-26T04:44:59;14.52;;;7.13;;
69621;SDS011;56841;55.964;37.674;2023-06-26T04:47:29;12.27;;;6.85;;
69621;SDS011;56841;55.964;37.674;2023-06-26T04:49:54;14.05;;;7.05;;
69621;SDS011;56841;55.964;37.674;2023-06-26T04:52:20;12.98;;;6.53;;
69621;SDS011;56841;55.964;37.674;2023-06-26T04:54:46;12.27;;;7.00;;
69621;SDS011;56841;55.964;37.674;2023-06-26T04:57:12;11.88;;;6.35;;
69621;SDS011;56841;55.964;37.674;2023-06-26T04:59:37;14.85;;;6.60;;
69621;SDS011;56841;55.964;37.674;2023-06-26T05:02:03;11.65;;;6.40;;
69621;SDS011;56841;55.964;37.674;2023-06-26T05:04:30;12.90;;;6.00;;
69621;SDS011;56841;55.964;37.674;2023-06-26T05:06:55;11.95;;;5.97;;
69621;SDS011;56841;55.964;37.674;2023-06-26T05:09:21;13.00;;;6.35;;
69621;SDS011;56841;55.964;37.674;2023-06-26T05:11:46;11.75;;;6.10;;
69621;SDS011;56841;55.964;37.674;2023-06-26T05:14:12;10.18;;;5.90;;
69621;SDS011;56841;55.964;37.674;2023-06-26T05:16:38;10.73;;;6.05;;
69621;SDS011;56841;55.964;37.674;2023-06-26T05:19:04;8.20;;;5.45;;
69621;SDS011;56841;55.964;37.674;2023-06-26T05:21:30;10.80;;;5.22;;
69621;SDS011;56841;55.964;37.674;2023-06-26T05:23:56;13.98;;;5.57;;
69621;SDS011;56841;55.964;37.674;2023-06-26T05:26:23;10.85;;;5.38;;
69621;SDS011;56841;55.964;37.674;2023-06-26T05:28:49;8.98;;;5.65;;
69621;SDS011;56841;55.964;37.674;2023-06-26T05:31:15;10.10;;;5.35;;
69621;SDS011;56841;55.964;37.674;2023-06-26T05:33:43;9.60;;;5.63;;
69621;SDS011;56841;55.964;37.674;2023-06-26T05:36:09;8.70;;;5.07;;
69621;SDS011;56841;55.964;37.674;2023-06-26T05:38:38;7.70;;;5.20;;
69621;SDS011;56841;55.964;37.674;2023-06-26T05:41:04;7.47;;;4.70;;
69621;SDS011;56841;55.964;37.674;2023-06-26T05:43:30;8.95;;;5.30;;
69621;SDS011;56841;55.964;37.674;2023-06-26T05:45:56;9.90;;;5.07;;
69621;SDS011;56841;55.964;37.674;2023-06-26T05:48:23;9.65;;;4.80;;
69621;SDS011;56841;55.964;37.674;2023-06-26T05:50:48;7.40;;;4.70;;
69621;SDS011;56841;55.964;37.674;2023-06-26T05:53:14;10.02;;;4.90;;
69621;SDS011;56841;55.964;37.674;2023-06-26T05:55:41;6.53;;;4.53;;
69621;SDS011;56841;55.964;37.674;2023-06-26T05:58:07;8.10;;;4.40;;
69621;SDS011;56841;55.964;37.674;2023-06-26T06:00:35;7.95;;;4.80;;
69621;SDS011;56841;55.964;37.674;2023-06-26T06:03:01;9.02;;;4.70;;
69621;SDS011;56841;55.964;37.674;2023-06-26T06:05:26;7.57;;;4.82;;
69621;SDS011;56841;55.964;37.674;2023-06-26T06:07:52;8.45;;;4.70;;
69621;SDS011;56841;55.964;37.674;2023-06-26T06:10:18;6.35;;;4.40;;
69621;SDS011;56841;55.964;37.674;2023-06-26T06:12:44;8.85;;;4.03;;
69621;SDS011;56841;55.964;37.674;2023-06-26T06:15:09;6.40;;;4.47;;
69621;SDS011;56841;55.964;37.674;2023-06-26T06:17:35;6.55;;;4.60;;
69621;SDS011;56841;55.964;37.674;2023-06-26T06:20:01;7.40;;;4.60;;
69621;SDS011;56841;55.964;37.674;2023-06-26T06:22:27;11.40;;;4.40;;
69621;SDS011;56841;55.964;37.674;2023-06-26T06:24:52;8.02;;;4.40;;
69621;SDS011;56841;55.964;37.674;2023-06-26T06:27:18;7.30;;;4.28;;
69621;SDS011;56841;55.964;37.674;2023-06-26T06:29:43;6.93;;;3.60;;
69621;SDS011;56841;55.964;37.674;2023-06-26T06:32:09;7.43;;;4.50;;
69621;SDS011;56841;55.964;37.674;2023-06-26T06:34:35;9.30;;;4.45;;
69621;SDS011;56841;55.964;37.674;2023-06-26T06:37:02;7.45;;;5.07;;
69621;SDS011;56841;55.964;37.674;2023-06-26T06:39:28;8.13;;;4.47;;
69621;SDS011;56841;55.964;37.674;2023-06-26T06:41:54;7.53;;;4.70;;
69621;SDS011;56841;55.964;37.674;2023-06-26T06:44:20;6.50;;;4.65;;
69621;SDS011;56841;55.964;37.674;2023-06-26T06:46:46;7.95;;;4.95;;
69621;SDS011;56841;55.964;37.674;2023-06-26T06:49:12;8.02;;;4.68;;
69621;SDS011;56841;55.964;37.674;2023-06-26T06:51:38;7.63;;;4.70;;
69621;SDS011;56841;55.964;37.674;2023-06-26T06:54:03;7.50;;;4.65;;
69621;SDS011;56841;55.964;37.674;2023-06-26T06:56:29;6.93;;;4.55;;
69621;SDS011;56841;55.964;37.674;2023-06-26T06:58:55;9.98;;;4.63;;
69621;SDS011;56841;55.964;37.674;2023-06-26T07:01:20;7.55;;;4.75;;
69621;SDS011;56841;55.964;37.674;2023-06-26T07:03:46;8.13;;;4.70;;
69621;SDS011;56841;55.964;37.674;2023-06-26T07:06:12;8.57;;;4.80;;
69621;SDS011;56841;55.964;37.674;2023-06-26T07:08:37;8.57;;;4.65;;
69621;SDS011;56841;55.964;37.674;2023-06-26T07:11:03;7.38;;;4.72;;
69621;SDS011;56841;55.964;37.674;2023-06-26T07:13:29;8.50;;;5.38;;
69621;SDS011;56841;55.964;37.674;2023-06-26T07:15:55;7.80;;;4.70;;
69621;SDS011;56841;55.964;37.674;2023-06-26T07:18:23;7.38;;;4.60;;
69621;SDS011;56841;55.964;37.674;2023-06-26T07:20:49;7.32;;;5.03;;
69621;SDS011;56841;55.964;37.674;2023-06-26T07:23:15;9.57;;;5.00;;
69621;SDS011;56841;55.964;37.674;2023-06-26T07:25:40;6.72;;;4.80;;
69621;SDS011;56841;55.964;37.674;2023-06-26T07:28:10;8.77;;;5.13;;
69621;SDS011;56841;55.964;37.674;2023-06-26T07:30:36;7.65;;;4.80;;
69621;SDS011;56841;55.964;37.674;2023-06-26T07:33:02;6.75;;;4.70;;
69621;SDS011;56841;55.964;37.674;2023-06-26T07:35:28;11.90;;;5.43;;
69621;SDS011;56841;55.964;37.674;2023-06-26T07:37:53;8.23;;;5.05;;
69621;SDS011;56841;55.964;37.674;2023-06-26T07:40:19;9.48;;;5.00;;
69621;SDS011;56841;55.964;37.674;2023-06-26T07:42:45;9.57;;;5.50;;
69621;SDS011;56841;55.964;37.674;2023-06-26T07:45:12;7.30;;;5.00;;
69621;SDS011;56841;55.964;37.674;2023-06-26T07:47:38;8.95;;;5.00;;
69621;SDS011;56841;55.964;37.674;2023-06-26T07:50:04;7.60;;;5.03;;
69621;SDS011;56841;55.964;37.674;2023-06-26T07:52:30;7.97;;;4.80;;
69621;SDS011;56841;55.964;37.674;2023-06-26T07:54:56;7.75;;;5.20;;
69621;SDS011;56841;55.964;37.674;2023-06-26T07:57:23;10.40;;;5.00;;
69621;SDS011;56841;55.964;37.674;2023-06-26T07:59:49;8.10;;;5.20;;
69621;SDS011;56841;55.964;37.674;2023-06-26T08:02:15;7.40;;;4.80;;
69621;SDS011;56841;55.964;37.674;2023-06-26T08:04:41;7.72;;;4.82;;
69621;SDS011;56841;55.964;37.674;2023-06-26T08:07:07;7.20;;;4.45;;
69621;SDS011;56841;55.964;37.674;2023-06-26T08:09:32;6.70;;;4.90;;
69621;SDS011;56841;55.964;37.674;2023-06-26T08:11:59;6.60;;;4.90;;
69621;SDS011;56841;55.964;37.674;2023-06-26T08:14:24;7.40;;;4.78;;
69621;SDS011;56841;55.964;37.674;2023-06-26T08:16:50;9.15;;;5.18;;
69621;SDS011;56841;55.964;37.674;2023-06-26T08:19:16;6.75;;;4.70;;
69621;SDS011;56841;55.964;37.674;2023-06-26T08:21:43;7.45;;;5.20;;
69621;SDS011;56841;55.964;37.674;2023-06-26T08:24:10;7.90;;;4.90;;
69621;SDS011;56841;55.964;37.674;2023-06-26T08:26:36;7.93;;;5.28;;
69621;SDS011;56841;55.964;37.674;2023-06-26T08:29:02;8.57;;;5.18;;
69621;SDS011;56841;55.964;37.674;2023-06-26T08:31:33;11.00;;;5.82;;
69621;SDS011;56841;55.964;37.674;2023-06-26T08:34:00;8.45;;;5.15;;
69621;SDS011;56841;55.964;37.674;2023-06-26T08:36:26;8.07;;;5.47;;
69621;SDS011;56841;55.964;37.674;2023-06-26T08:38:52;7.13;;;4.55;;
69621;SDS011;56841;55.964;37.674;2023-06-26T08:41:20;6.72;;;4.72;;
69621;SDS011;56841;55.964;37.674;2023-06-26T08:43:46;6.53;;;4.70;;
69621;SDS011;56841;55.964;37.674;2023-06-26T08:46:13;7.03;;;5.00;;
69621;SDS011;56841;55.964;37.674;2023-06-26T08:48:40;7.50;;;5.05;;
69621;SDS011;56841;55.964;37.674;2023-06-26T08:51:11;8.90;;;5.13;;
69621;SDS011;56841;55.964;37.674;2023-06-26T08:53:52;9.95;;;5.57;;
69621;SDS011;56841;55.964;37.674;2023-06-26T08:56:20;7.30;;;4.68;;
69621;SDS011;56841;55.964;37.674;2023-06-26T08:58:48;7.38;;;5.05;;
69621;SDS011;56841;55.964;37.674;2023-06-26T09:01:14;7.60;;;5.03;;
69621;SDS011;56841;55.964;37.674;2023-06-26T09:03:40;8.43;;;5.03;;
69621;SDS011;56841;55.964;37.674;2023-06-26T09:06:09;10.07;;;5.07;;
69621;SDS011;56841;55.964;37.674;2023-06-26T09:08:35;11.52;;;4.88;;
69621;SDS011;56841;55.964;37.674;2023-06-26T09:11:00;10.38;;;5.07;;
69621;SDS011;56841;55.964;37.674;2023-06-26T09:13:28;8.25;;;5.25;;
69621;SDS011;56841;55.964;37.674;2023-06-26T09:15:55;7.60;;;4.90;;
69621;SDS011;56841;55.964;37.674;2023-06-26T09:18:21;8.02;;;4.80;;
69621;SDS011;56841;55.964;37.674;2023-06-26T09:20:47;7.57;;;4.40;;
69621;SDS011;56841;55.964;37.674;2023-06-26T09:23:13;8.35;;;4.82;;
69621;SDS011;56841;55.964;37.674;2023-06-26T09:25:40;8.80;;;5.05;;
69621;SDS011;56841;55.964;37.674;2023-06-26T09:28:06;9.88;;;5.20;;
69621;SDS011;56841;55.964;37.674;2023-06-26T09:30:33;8.02;;;5.60;;
69621;SDS011;56841;55.964;37.674;2023-06-26T09:33:15;8.80;;;5.40;;
69621;SDS011;56841;55.964;37.674;2023-06-26T09:35:42;7.28;;;4.65;;
69621;SDS011;56841;55.964;37.674;2023-06-26T09:38:09;9.65;;;4.70;;
69621;SDS011;56841;55.964;37.674;2023-06-26T09:40:35;8.02;;;5.40;;
69621;SDS011;56841;55.964;37.674;2023-06-26T09:43:04;10.50;;;5.07;;
69621;SDS011;56841;55.964;37.674;2023-06-26T09:45:36;7.53;;;4.68;;
69621;SDS011;56841;55.964;37.674;2023-06-26T09:48:05;13.73;;;6.18;;
69621;SDS011;56841;55.964;37.674;2023-06-26T09:50:34;10.93;;;5.32;;
69621;SDS011;56841;55.964;37.674;2023-06-26T09:53:10;12.18;;;5.03;;
69621;SDS011;56841;55.964;37.674;2023-06-26T09:55:38;9.80;;;4.65;;
69621;SDS011;56841;55.964;37.674;2023-06-26T09:58:05;9.48;;;5.32;;
69621;SDS011;56841;55.964;37.674;2023-06-26T10:00:31;8.20;;;4.90;;
69621;SDS011;56841;55.964;37.674;2023-06-26T10:02:58;6.80;;;4.55;;
69621;SDS011;56841;55.964;37.674;2023-06-26T10:05:24;8.50;;;5.00;;
69621;SDS011;56841;55.964;37.674;2023-06-26T10:07:50;10.95;;;5.70;;
69621;SDS011;56841;55.964;37.674;2023-06-26T10:10:18;10.80;;;5.00;;
69621;SDS011;56841;55.964;37.674;2023-06-26T10:12:45;7.15;;;4.68;;
69621;SDS011;56841;55.964;37.674;2023-06-26T10:15:14;8.68;;;4.95;;
69621;SDS011;56841;55.964;37.674;2023-06-26T10:17:42;9.40;;;5.30;;
69621;SDS011;56841;55.964;37.674;2023-06-26T10:20:10;8.38;;;5.32;;
69621;SDS011;56841;55.964;37.674;2023-06-26T10:22:45;7.38;;;4.60;;
69621;SDS011;56841;55.964;37.674;2023-06-26T10:25:14;9.45;;;5.05;;
69621;SDS011;56841;55.964;37.674;2023-06-26T10:27:47;11.27;;;4.78;;
69621;SDS011;56841;55.964;37.674;2023-06-26T10:30:18;10.02;;;5.20;;
69621;SDS011;56841;55.964;37.674;2023-06-26T10:35:13;10.13;;;5.40;;
69621;SDS011;56841;55.964;37.674;2023-06-26T10:40:25;8.20;;;5.13;;
69621;SDS011;56841;55.964;37.674;2023-06-26T10:43:29;8.05;;;5.30;;
69621;SDS011;56841;55.964;37.674;2023-06-26T10:45:48;10.40;;;5.20;;
69621;SDS011;56841;55.964;37.674;2023-06-26T10:48:19;7.63;;;4.45;;
69621;SDS011;56841;55.964;37.674;2023-06-26T10:50:49;6.70;;;4.72;;
69621;SDS011;56841;55.964;37.674;2023-06-26T10:53:15;7.72;;;4.60;;
69621;SDS011;56841;55.964;37.674;2023-06-26T11:03:39;8.30;;;5.05;;
69621;SDS011;56841;55.964;37.674;2023-06-26T11:06:13;7.35;;;4.45;;
69621;SDS011;56841;55.964;37.674;2023-06-26T11:08:46;9.32;;;5.32;;
69621;SDS011;56841;55.964;37.674;2023-06-26T11:11:21;8.57;;;4.65;;
69621;SDS011;56841;55.964;37.674;2023-06-26T11:14:07;9.70;;;4.95;;
69621;SDS011;56841;55.964;37.674;2023-06-26T11:16:34;7.05;;;4.22;;
69621;SDS011;56841;55.964;37.674;2023-06-26T11:19:00;9.25;;;5.30;;
69621;SDS011;56841;55.964;37.674;2023-06-26T11:21:26;8.63;;;5.07;;
69621;SDS011;56841;55.964;37.674;2023-06-26T11:23:52;8.93;;;5.40;;
69621;SDS011;56841;55.964;37.674;2023-06-26T11:28:50;8.20;;;5.03;;
69621;SDS011;56841;55.964;37.674;2023-06-26T11:34:12;7.75;;;5.47;;
69621;SDS011;56841;55.964;37.674;2023-06-26T11:36:39;7.28;;;4.88;;
69621;SDS011;56841;55.964;37.674;2023-06-26T11:39:07;11.65;;;5.10;;
69621;SDS011;56841;55.964;37.674;2023-06-26T11:41:36;9.68;;;5.22;;
69621;SDS011;56841;55.964;37.674;2023-06-26T11:44:04;12.32;;;5.57;;
69621;SDS011;56841;55.964;37.674;2023-06-26T11:46:31;10.68;;;5.20;;
69621;SDS011;56841;55.964;37.674;2023-06-26T11:48:57;7.47;;;4.53;;
69621;SDS011;56841;55.964;37.674;2023-06-26T11:51:23;8.30;;;4.70;;
69621;SDS011;56841;55.964;37.674;2023-06-26T11:53:53;10.95;;;4.93;;
69621;SDS011;56841;55.964;37.674;2023-06-26T11:56:18;7.72;;;5.45;;
69621;SDS011;56841;55.964;37.674;2023-06-26T11:59:06;8.65;;;5.28;;
69621;SDS011;56841;55.964;37.674;2023-06-26T12:01:35;11.88;;;5.22;;
69621;SDS011;56841;55.964;37.674;2023-06-26T12:04:03;6.82;;;4.72;;
69621;SDS011;56841;55.964;37.674;2023-06-26T12:06:30;7.22;;;5.03;;
69621;SDS011;56841;55.964;37.674;2023-06-26T12:08:58;8.98;;;5.32;;
69621;SDS011;56841;55.964;37.674;2023-06-26T12:11:26;8.20;;;5.40;;
69621;SDS011;56841;55.964;37.674;2023-06-26T12:13:53;6.63;;;4.18;;
69621;SDS011;56841;55.964;37.674;2023-06-26T12:16:20;8.88;;;5.63;;
69621;SDS011;56841;55.964;37.674;2023-06-26T12:18:46;6.82;;;5.00;;
69621;SDS011;56841;55.964;37.674;2023-06-26T12:24:17;14.00;;;7.43;;
69621;SDS011;56841;55.964;37.674;2023-06-26T12:26:45;6.47;;;5.30;;
69621;SDS011;56841;55.964;37.674;2023-06-26T12:29:13;6.40;;;5.35;;
69621;SDS011;56841;55.964;37.674;2023-06-26T12:31:49;7.90;;;4.93;;
69621;SDS011;56841;55.964;37.674;2023-06-26T12:34:31;7.07;;;4.57;;
69621;SDS011;56841;55.964;37.674;2023-06-26T12:37:05;6.72;;;3.83;;
69621;SDS011;56841;55.964;37.674;2023-06-26T12:42:24;5.05;;;3.03;;
69621;SDS011;56841;55.964;37.674;2023-06-26T12:44:51;4.40;;;3.58;;
69621;SDS011;56841;55.964;37.674;2023-06-26T12:47:25;6.10;;;3.63;;
69621;SDS011;56841;55.964;37.674;2023-06-26T12:49:52;4.85;;;3.67;;
69621;SDS011;56841;55.964;37.674;2023-06-26T12:52:18;6.22;;;4.03;;
69621;SDS011;56841;55.964;37.674;2023-06-26T12:54:45;6.70;;;3.95;;
69621;SDS011;56841;55.964;37.674;2023-06-26T12:57:12;7.65;;;4.32;;
69621;SDS011;56841;55.964;37.674;2023-06-26T12:59:41;8.48;;;4.70;;
69621;SDS011;56841;55.964;37.674;2023-06-26T13:02:07;6.43;;;4.13;;
69621;SDS011;56841;55.964;37.674;2023-06-26T13:04:33;6.70;;;3.90;;
69621;SDS011;56841;55.964;37.674;2023-06-26T13:07:00;6.07;;;4.18;;
69621;SDS011;56841;55.964;37.674;2023-06-26T13:09:26;5.72;;;3.42;;
69621;SDS011;56841;55.964;37.674;2023-06-26T13:11:58;5.63;;;4.28;;
69621;SDS011;56841;55.964;37.674;2023-06-26T13:14:24;5.90;;;4.28;;
69621;SDS011;56841;55.964;37.674;2023-06-26T13:16:51;5.20;;;3.58;;
69621;SDS011;56841;55.964;37.674;2023-06-26T13:19:16;5.60;;;4.57;;
69621;SDS011;56841;55.964;37.674;2023-06-26T13:21:42;5.40;;;3.97;;
69621;SDS011;56841;55.964;37.674;2023-06-26T13:24:08;5.63;;;4.38;;
69621;SDS011;56841;55.964;37.674;2023-06-26T13:26:34;5.15;;;3.70;;
69621;SDS011;56841;55.964;37.674;2023-06-26T13:29:00;6.68;;;3.83;;
69621;SDS011;56841;55.964;37.674;2023-06-26T13:31:26;5.63;;;4.28;;
69621;SDS011;56841;55.964;37.674;2023-06-26T13:33:52;6.47;;;3.70;;
69621;SDS011;56841;55.964;37.674;2023-06-26T13:36:18;6.28;;;4.13;;
69621;SDS011;56841;55.964;37.674;2023-06-26T13:38:44;6.05;;;3.90;;
69621;SDS011;56841;55.964;37.674;2023-06-26T13:41:10;6.00;;;3.90;;
69621;SDS011;56841;55.964;37.674;2023-06-26T13:43:36;5.80;;;3.83;;
69621;SDS011;56841;55.964;37.674;2023-06-26T13:46:02;7.03;;;4.47;;
69621;SDS011;56841;55.964;37.674;2023-06-26T13:48:29;6.20;;;4.13;;
69621;SDS011;56841;55.964;37.674;2023-06-26T13:50:55;7.90;;;4.13;;
69621;SDS011;56841;55.964;37.674;2023-06-26T13:53:21;8.05;;;4.20;;
69621;SDS011;56841;55.964;37.674;2023-06-26T13:55:47;16.67;;;4.43;;
69621;SDS011;56841;55.964;37.674;2023-06-26T13:58:13;9.55;;;4.38;;
69621;SDS011;56841;55.964;37.674;2023-06-26T14:00:39;11.60;;;4.70;;
69621;SDS011;56841;55.964;37.674;2023-06-26T14:03:06;7.60;;;4.72;;
69621;SDS011;56841;55.964;37.674;2023-06-26T14:05:33;10.95;;;4.85;;
69621;SDS011;56841;55.964;37.674;2023-06-26T14:08:02;8.77;;;4.65;;
69621;SDS011;56841;55.964;37.674;2023-06-26T14:10:29;6.18;;;3.58;;
69621;SDS011;56841;55.964;37.674;2023-06-26T14:12:55;7.75;;;4.05;;
69621;SDS011;56841;55.964;37.674;2023-06-26T14:15:21;6.53;;;4.03;;
69621;SDS011;56841;55.964;37.674;2023-06-26T14:17:47;7.28;;;4.13;;
69621;SDS011;56841;55.964;37.674;2023-06-26T14:20:13;5.85;;;4.07;;
69621;SDS011;56841;55.964;37.674;2023-06-26T14:22:39;6.78;;;4.32;;
69621;SDS011;56841;55.964;37.674;2023-06-26T14:25:08;5.47;;;3.58;;
69621;SDS011;56841;55.964;37.674;2023-06-26T14:27:34;5.43;;;3.95;;
69621;SDS011;56841;55.964;37.674;2023-06-26T14:30:04;4.45;;;3.05;;
69621;SDS011;56841;55.964;37.674;2023-06-26T14:32:31;5.50;;;3.80;;
69621;SDS011;56841;55.964;37.674;2023-06-26T14:34:57;7.07;;;3.72;;
69621;SDS011;56841;55.964;37.674;2023-06-26T14:37:23;6.05;;;4.00;;
69621;SDS011;56841;55.964;37.674;2023-06-26T14:39:49;5.25;;;3.05;;
69621;SDS011;56841;55.964;37.674;2023-06-26T14:42:15;5.82;;;3.58;;
69621;SDS011;56841;55.964;37.674;2023-06-26T14:44:41;14.20;;;3.95;;
69621;SDS011;56841;55.964;37.674;2023-06-26T14:47:07;8.57;;;4.35;;
69621;SDS011;56841;55.964;37.674;2023-06-26T14:49:32;9.98;;;5.18;;
69621;SDS011;56841;55.964;37.674;2023-06-26T14:51:58;9.75;;;5.47;;
69621;SDS011;56841;55.964;37.674;2023-06-26T14:54:24;9.23;;;5.65;;
69621;SDS011;56841;55.964;37.674;2023-06-26T14:56:50;8.55;;;4.45;;